sensor_id;sensor_type;location;lat;lon;timestamp;pressure;altitude;pressure_sealevel;temperature;humidity
48668;BME280;34453;52.198;5.004;2023-03-15T00:00:40;101335.97;;;1.71;100.00
48668;BME280;34453;52.198;5.004;2023-03-15T00:03:07;101334.16;;;1.73;100.00
48668;BME280;34453;52.198;5.004;2023-03-15T00:05:32;101342.25;;;1.84;100.00
48668;BME280;34453;52.198;5.004;2023-03-15T00:07:58;101332.69;;;1.86;100.00
48668;BME280;34453;52.198;5.004;2023-03-15T00:10:23;101335.13;;;1.89;100.00
48668;BME280;34453;52.198;5.004;2023-03-15T00:12:49;101336.84;;;1.89;100.00
48668;BME280;34453;52.198;5.004;2023-03-15T00:15:16;101329.81;;;1.92;100.00
48668;BME280;34453;52.198;5.004;2023-03-15T00:17:41;101335.88;;;1.91;100.00
48668;BME280;34453;52.198;5.004;2023-03-15T00:20:09;101346.97;;;1.93;100.00
48668;BME280;34453;52.198;5.004;2023-03-15T00:22:35;101342.88;;;1.89;100.00
48668;BME280;34453;52.198;5.004;2023-03-15T00:25:00;101337.72;;;1.89;100.00
48668;BME280;34453;52.198;5.004;2023-03-15T00:27:26;101346.13;;;1.93;100.00
48668;BME280;34453;52.198;5.004;2023-03-15T00:29:51;101341.13;;;1.90;100.00
48668;BME280;34453;52.198;5.004;2023-03-15T00:32:17;101346.13;;;1.93;100.00
48668;BME280;34453;52.198;5.004;2023-03-15T00:34:42;101353.75;;;1.96;100.00
48668;BME280;34453;52.198;5.004;2023-03-15T00:37:15;101355.41;;;1.97;100.00
48668;BME280;34453;52.198;5.004;2023-03-15T00:39:42;101359.50;;;2.01;100.00
48668;BME280;34453;52.198;5.004;2023-03-15T00:42:10;101366.03;;;2.08;100.00
48668;BME280;34453;52.198;5.004;2023-03-15T00:44:36;101363.25;;;2.13;100.00
48668;BME280;34453;52.198;5.004;2023-03-15T00:47:01;101358.09;;;2.13;100.00
48668;BME280;34453;52.198;5.004;2023-03-15T00:49:27;101354.72;;;2.11;100.00
48668;BME280;34453;52.198;5.004;2023-03-15T00:51:55;101361.50;;;2.13;100.00
48668;BME280;34453;52.198;5.004;2023-03-15T00:54:20;101361.44;;;2.15;100.00
48668;BME280;34453;52.198;5.004;2023-03-15T00:56:48;101375.53;;;2.07;100.00
48668;BME280;34453;52.198;5.004;2023-03-15T00:59:13;101378.88;;;2.10;100.00
48668;BME280;34453;52.198;5.004;2023-03-15T01:01:39;101381.31;;;2.13;100.00
48668;BME280;34453;52.198;5.004;2023-03-15T01:04:09;101382.00;;;2.16;100.00
48668;BME280;34453;52.198;5.004;2023-03-15T01:06:36;101389.00;;;2.14;100.00
48668;BME280;34453;52.198;5.004;2023-03-15T01:09:02;101401.75;;;2.17;100.00
48668;BME280;34453;52.198;5.004;2023-03-15T01:11:28;101400.16;;;2.15;100.00
48668;BME280;34453;52.198;5.004;2023-03-15T01:13:56;101404.41;;;2.16;100.00
48668;BME280;34453;52.198;5.004;2023-03-15T01:16:22;101395.75;;;2.17;100.00
48668;BME280;34453;52.198;5.004;2023-03-15T01:18:48;101398.28;;;2.18;100.00
48668;BME280;34453;52.198;5.004;2023-03-15T01:21:16;101392.41;;;2.15;100.00
48668;BME280;34453;52.198;5.004;2023-03-15T01:23:42;101400.00;;;2.18;100.00
48668;BME280;34453;52.198;5.004;2023-03-15T01:26:10;101402.72;;;2.15;100.00
48668;BME280;34453;52.198;5.004;2023-03-15T01:28:36;101396.81;;;2.13;100.00
48668;BME280;34453;52.198;5.004;2023-03-15T01:31:02;101405.69;;;2.07;100.00
48668;BME280;34453;52.198;5.004;2023-03-15T01:33:27;101407.16;;;1.94;100.00
48668;BME280;34453;52.198;5.004;2023-03-15T01:36:01;101416.72;;;1.73;100.00
48668;BME280;34453;52.198;5.004;2023-03-15T01:38:28;101420.22;;;1.72;100.00
48668;BME280;34453;52.198;5.004;2023-03-15T01:40:53;101428.72;;;1.74;100.00
48668;BME280;34453;52.198;5.004;2023-03-15T01:43:20;101429.63;;;1.73;100.00
48668;BME280;34453;52.198;5.004;2023-03-15T01:48:17;101438.19;;;1.92;100.00
48668;BME280;34453;52.198;5.004;2023-03-15T01:50:46;101438.34;;;1.89;100.00
48668;BME280;34453;52.198;5.004;2023-03-15T01:53:11;101439.25;;;1.88;100.00
48668;BME280;34453;52.198;5.004;2023-03-15T01:55:37;101442.31;;;1.77;100.00
48668;BME280;34453;52.198;5.004;2023-03-15T01:58:04;101449.94;;;1.80;100.00
48668;BME280;34453;52.198;5.004;2023-03-15T02:00:31;101436.69;;;1.69;100.00
48668;BME280;34453;52.198;5.004;2023-03-15T02:03:11;101448.25;;;1.60;100.00
48668;BME280;34453;52.198;5.004;2023-03-15T02:05:45;101448.56;;;1.53;100.00
48668;BME280;34453;52.198;5.004;2023-03-15T02:08:14;101441.88;;;1.49;100.00
48668;BME280;34453;52.198;5.004;2023-03-15T02:10:50;101449.50;;;1.52;100.00
48668;BME280;34453;52.198;5.004;2023-03-15T02:13:18;101446.13;;;1.50;100.00
48668;BME280;34453;52.198;5.004;2023-03-15T02:15:47;101458.94;;;1.51;100.00
48668;BME280;34453;52.198;5.004;2023-03-15T02:18:13;101473.47;;;1.54;100.00
48668;BME280;34453;52.198;5.004;2023-03-15T02:20:50;101487.81;;;1.59;100.00
48668;BME280;34453;52.198;5.004;2023-03-15T02:23:22;101476.63;;;1.60;100.00
48668;BME280;34453;52.198;5.004;2023-03-15T02:28:31;101471.94;;;1.69;100.00
48668;BME280;34453;52.198;5.004;2023-03-15T02:30:58;101476.13;;;1.71;100.00
48668;BME280;34453;52.198;5.004;2023-03-15T02:36:10;101478.94;;;1.85;100.00
48668;BME280;34453;52.198;5.004;2023-03-15T02:38:39;101491.13;;;1.82;100.00
48668;BME280;34453;52.198;5.004;2023-03-15T02:41:04;101487.16;;;1.75;100.00
48668;BME280;34453;52.198;5.004;2023-03-15T02:43:31;101492.66;;;1.67;100.00
48668;BME280;34453;52.198;5.004;2023-03-15T02:45:58;101491.19;;;1.61;100.00
48668;BME280;34453;52.198;5.004;2023-03-15T02:48:24;101501.91;;;1.52;100.00
48668;BME280;34453;52.198;5.004;2023-03-15T02:50:50;101505.50;;;1.48;100.00
48668;BME280;34453;52.198;5.004;2023-03-15T02:53:15;101503.84;;;1.47;100.00
48668;BME280;34453;52.198;5.004;2023-03-15T02:55:41;101512.47;;;1.46;100.00
48668;BME280;34453;52.198;5.004;2023-03-15T02:58:06;101516.47;;;1.53;100.00
48668;BME280;34453;52.198;5.004;2023-03-15T03:00:32;101526.56;;;1.58;100.00
48668;BME280;34453;52.198;5.004;2023-03-15T03:02:57;101523.38;;;1.53;100.00
48668;BME280;34453;52.198;5.004;2023-03-15T03:05:23;101525.94;;;1.53;100.00
48668;BME280;34453;52.198;5.004;2023-03-15T03:07:48;101538.78;;;1.54;100.00
48668;BME280;34453;52.198;5.004;2023-03-15T03:10:16;101543.88;;;1.56;100.00
48668;BME280;34453;52.198;5.004;2023-03-15T03:12:42;101544.72;;;1.56;100.00
48668;BME280;34453;52.198;5.004;2023-03-15T03:15:09;101544.81;;;1.53;100.00
48668;BME280;34453;52.198;5.004;2023-03-15T03:17:34;101550.38;;;1.44;100.00
48668;BME280;34453;52.198;5.004;2023-03-15T03:20:09;101557.22;;;1.45;100.00
48668;BME280;34453;52.198;5.004;2023-03-15T03:22:40;101556.66;;;1.38;100.00
48668;BME280;34453;52.198;5.004;2023-03-15T03:25:07;101565.84;;;1.44;100.00
48668;BME280;34453;52.198;5.004;2023-03-15T03:27:34;101558.78;;;1.49;100.00
48668;BME280;34453;52.198;5.004;2023-03-15T03:30:04;101558.69;;;1.51;100.00
48668;BME280;34453;52.198;5.004;2023-03-15T03:32:30;101581.78;;;1.54;100.00
48668;BME280;34453;52.198;5.004;2023-03-15T03:34:56;101576.63;;;1.54;100.00
48668;BME280;34453;52.198;5.004;2023-03-15T03:37:21;101592.16;;;1.52;100.00
48668;BME280;34453;52.198;5.004;2023-03-15T03:39:47;101590.38;;;1.54;100.00
48668;BME280;34453;52.198;5.004;2023-03-15T03:42:12;101604.94;;;1.55;100.00
48668;BME280;34453;52.198;5.004;2023-03-15T03:44:39;101596.41;;;1.53;100.00
48668;BME280;34453;52.198;5.004;2023-03-15T03:47:05;101596.31;;;1.56;100.00
48668;BME280;34453;52.198;5.004;2023-03-15T03:49:31;101601.13;;;1.64;100.00
48668;BME280;34453;52.198;5.004;2023-03-15T03:51:56;101599.31;;;1.66;100.00
48668;BME280;34453;52.198;5.004;2023-03-15T03:54:22;101606.22;;;1.65;100.00
48668;BME280;34453;52.198;5.004;2023-03-15T03:56:49;101609.69;;;1.64;100.00
48668;BME280;34453;52.198;5.004;2023-03-15T03:59:14;101613.34;;;1.60;100.00
48668;BME280;34453;52.198;5.004;2023-03-15T04:01:40;101617.56;;;1.61;100.00
48668;BME280;34453;52.198;5.004;2023-03-15T04:04:06;101620.00;;;1.64;100.00
48668;BME280;34453;52.198;5.004;2023-03-15T04:06:32;101623.16;;;1.71;100.00
48668;BME280;34453;52.198;5.004;2023-03-15T04:08:58;101614.84;;;1.64;100.00
48668;BME280;34453;52.198;5.004;2023-03-15T04:11:23;101625.88;;;1.68;100.00
48668;BME280;34453;52.198;5.004;2023-03-15T04:13:53;101627.50;;;1.71;100.00
48668;BME280;34453;52.198;5.004;2023-03-15T04:16:19;101628.28;;;1.73;100.00
48668;BME280;34453;52.198;5.004;2023-03-15T04:18:45;101637.72;;;1.74;100.00
48668;BME280;34453;52.198;5.004;2023-03-15T04:21:10;101645.38;;;1.75;100.00
48668;BME280;34453;52.198;5.004;2023-03-15T04:23:36;101646.53;;;1.68;100.00
48668;BME280;34453;52.198;5.004;2023-03-15T04:26:02;101645.69;;;1.68;100.00
48668;BME280;34453;52.198;5.004;2023-03-15T04:28:29;101650.72;;;1.71;100.00
48668;BME280;34453;52.198;5.004;2023-03-15T04:30:56;101643.66;;;1.76;100.00
48668;BME280;34453;52.198;5.004;2023-03-15T04:33:26;101653.81;;;1.79;100.00
48668;BME280;34453;52.198;5.004;2023-03-15T04:35:52;101652.03;;;1.81;100.00
48668;BME280;34453;52.198;5.004;2023-03-15T04:38:17;101660.66;;;1.80;100.00
48668;BME280;34453;52.198;5.004;2023-03-15T04:40:43;101657.03;;;1.84;100.00
48668;BME280;34453;52.198;5.004;2023-03-15T04:43:09;101657.81;;;1.86;100.00
48668;BME280;34453;52.198;5.004;2023-03-15T04:45:34;101663.81;;;1.86;100.00
48668;BME280;34453;52.198;5.004;2023-03-15T04:48:01;101675.78;;;1.89;100.00
48668;BME280;34453;52.198;5.004;2023-03-15T04:50:27;101670.91;;;1.81;100.00
48668;BME280;34453;52.198;5.004;2023-03-15T04:52:53;101681.56;;;1.74;100.00
48668;BME280;34453;52.198;5.004;2023-03-15T04:55:19;101680.66;;;1.75;100.00
48668;BME280;34453;52.198;5.004;2023-03-15T04:57:44;101681.69;;;1.71;100.00
48668;BME280;34453;52.198;5.004;2023-03-15T05:00:10;101694.66;;;1.69;100.00
48668;BME280;34453;52.198;5.004;2023-03-15T05:02:37;101699.81;;;1.69;100.00
48668;BME280;34453;52.198;5.004;2023-03-15T05:05:06;101700.66;;;1.70;100.00
48668;BME280;34453;52.198;5.004;2023-03-15T05:07:33;101698.84;;;1.72;100.00
48668;BME280;34453;52.198;5.004;2023-03-15T05:09:59;101709.81;;;1.77;100.00
48668;BME280;34453;52.198;5.004;2023-03-15T05:12:26;101719.22;;;1.78;100.00
48668;BME280;34453;52.198;5.004;2023-03-15T05:14:51;101734.66;;;1.79;100.00
48668;BME280;34453;52.198;5.004;2023-03-15T05:17:16;101741.03;;;1.91;100.00
48668;BME280;34453;52.198;5.004;2023-03-15T05:19:42;101746.88;;;1.96;100.00
48668;BME280;34453;52.198;5.004;2023-03-15T05:22:07;101740.72;;;1.99;100.00
48668;BME280;34453;52.198;5.004;2023-03-15T05:24:33;101741.81;;;1.93;100.00
48668;BME280;34453;52.198;5.004;2023-03-15T05:26:59;101745.44;;;1.89;100.00
48668;BME280;34453;52.198;5.004;2023-03-15T05:29:24;101744.78;;;1.84;100.00
48668;BME280;34453;52.198;5.004;2023-03-15T05:31:50;101750.44;;;1.72;100.00
48668;BME280;34453;52.198;5.004;2023-03-15T05:34:18;101750.28;;;1.54;100.00
48668;BME280;34453;52.198;5.004;2023-03-15T05:36:43;101757.66;;;1.41;100.00
48668;BME280;34453;52.198;5.004;2023-03-15T05:39:09;101750.09;;;1.37;100.00
48668;BME280;34453;52.198;5.004;2023-03-15T05:41:36;101754.53;;;1.33;100.00
48668;BME280;34453;52.198;5.004;2023-03-15T05:44:01;101754.00;;;1.25;100.00
48668;BME280;34453;52.198;5.004;2023-03-15T05:46:26;101747.31;;;1.19;100.00
48668;BME280;34453;52.198;5.004;2023-03-15T05:48:52;101760.91;;;1.24;100.00
48668;BME280;34453;52.198;5.004;2023-03-15T05:51:18;101762.56;;;1.26;100.00
48668;BME280;34453;52.198;5.004;2023-03-15T05:53:44;101763.47;;;1.24;100.00
48668;BME280;34453;52.198;5.004;2023-03-15T05:56:09;101764.31;;;1.25;100.00
48668;BME280;34453;52.198;5.004;2023-03-15T05:58:34;101770.41;;;1.22;100.00
48668;BME280;34453;52.198;5.004;2023-03-15T06:01:01;101776.63;;;1.17;100.00
48668;BME280;34453;52.198;5.004;2023-03-15T06:03:28;101769.91;;;1.13;100.00
48668;BME280;34453;52.198;5.004;2023-03-15T06:05:54;101782.94;;;1.10;100.00
48668;BME280;34453;52.198;5.004;2023-03-15T06:08:20;101787.47;;;1.03;100.00
48668;BME280;34453;52.198;5.004;2023-03-15T06:10:45;101777.50;;;0.94;100.00
48668;BME280;34453;52.198;5.004;2023-03-15T06:13:10;101775.81;;;0.93;100.00
48668;BME280;34453;52.198;5.004;2023-03-15T06:15:36;101792.72;;;1.00;100.00
48668;BME280;34453;52.198;5.004;2023-03-15T06:18:01;101799.44;;;1.04;100.00
48668;BME280;34453;52.198;5.004;2023-03-15T06:20:27;101794.97;;;1.09;100.00
48668;BME280;34453;52.198;5.004;2023-03-15T06:22:52;101811.09;;;1.14;100.00
48668;BME280;34453;52.198;5.004;2023-03-15T06:25:18;101810.97;;;1.17;100.00
48668;BME280;34453;52.198;5.004;2023-03-15T06:27:44;101817.03;;;1.16;100.00
48668;BME280;34453;52.198;5.004;2023-03-15T06:30:09;101817.75;;;1.20;100.00
48668;BME280;34453;52.198;5.004;2023-03-15T06:32:35;101827.81;;;1.28;100.00
48668;BME280;34453;52.198;5.004;2023-03-15T06:35:00;101836.31;;;1.30;100.00
48668;BME280;34453;52.198;5.004;2023-03-15T06:37:26;101834.63;;;1.29;100.00
48668;BME280;34453;52.198;5.004;2023-03-15T06:39:51;101838.72;;;1.34;100.00
48668;BME280;34453;52.198;5.004;2023-03-15T06:42:18;101842.09;;;1.36;100.00
48668;BME280;34453;52.198;5.004;2023-03-15T06:44:44;101848.81;;;1.40;100.00
48668;BME280;34453;52.198;5.004;2023-03-15T06:47:10;101846.13;;;1.43;100.00
48668;BME280;34453;52.198;5.004;2023-03-15T06:49:35;101848.56;;;1.47;100.00
48668;BME280;34453;52.198;5.004;2023-03-15T06:52:02;101845.28;;;1.43;100.00
48668;BME280;34453;52.198;5.004;2023-03-15T06:54:28;101854.69;;;1.44;100.00
48668;BME280;34453;52.198;5.004;2023-03-15T06:56:53;101856.66;;;1.37;100.00
48668;BME280;34453;52.198;5.004;2023-03-15T06:59:18;101861.47;;;1.47;100.00
48668;BME280;34453;52.198;5.004;2023-03-15T07:01:44;101863.03;;;1.51;100.00
48668;BME280;34453;52.198;5.004;2023-03-15T07:04:09;101874.75;;;1.59;100.00
48668;BME280;34453;52.198;5.004;2023-03-15T07:06:35;101868.41;;;1.68;100.00
48668;BME280;34453;52.198;5.004;2023-03-15T07:09:01;101875.13;;;1.72;100.00
48668;BME280;34453;52.198;5.004;2023-03-15T07:11:27;101874.03;;;1.78;100.00
48668;BME280;34453;52.198;5.004;2023-03-15T07:13:52;101872.97;;;1.83;100.00
48668;BME280;34453;52.198;5.004;2023-03-15T07:16:18;101865.00;;;1.90;100.00
48668;BME280;34453;52.198;5.004;2023-03-15T07:18:43;101870.03;;;1.93;100.00
48668;BME280;34453;52.198;5.004;2023-03-15T07:21:09;101879.03;;;2.04;100.00
48668;BME280;34453;52.198;5.004;2023-03-15T07:23:34;101880.16;;;2.19;100.00
48668;BME280;34453;52.198;5.004;2023-03-15T07:26:00;101869.84;;;2.19;100.00
48668;BME280;34453;52.198;5.004;2023-03-15T07:28:26;101886.88;;;2.23;100.00
48668;BME280;34453;52.198;5.004;2023-03-15T07:30:56;101878.16;;;2.26;100.00
48668;BME280;34453;52.198;5.004;2023-03-15T07:33:23;101886.50;;;2.33;100.00
48668;BME280;34453;52.198;5.004;2023-03-15T07:35:50;101886.41;;;2.36;100.00
48668;BME280;34453;52.198;5.004;2023-03-15T07:38:17;101892.16;;;2.42;100.00
48668;BME280;34453;52.198;5.004;2023-03-15T07:40:43;101889.25;;;2.50;100.00
48668;BME280;34453;52.198;5.004;2023-03-15T07:43:09;101901.84;;;2.58;100.00
48668;BME280;34453;52.198;5.004;2023-03-15T07:45:34;101904.06;;;2.67;100.00
48668;BME280;34453;52.198;5.004;2023-03-15T07:48:00;101910.56;;;2.76;100.00
48668;BME280;34453;52.198;5.004;2023-03-15T07:50:26;101906.91;;;2.81;100.00
48668;BME280;34453;52.198;5.004;2023-03-15T07:52:51;101913.28;;;2.93;100.00
48668;BME280;34453;52.198;5.004;2023-03-15T07:55:17;101920.72;;;3.01;100.00
48668;BME280;34453;52.198;5.004;2023-03-15T07:57:43;101925.69;;;3.05;100.00
48668;BME280;34453;52.198;5.004;2023-03-15T08:00:09;101925.88;;;3.21;100.00
48668;BME280;34453;52.198;5.004;2023-03-15T08:02:36;101930.91;;;3.24;100.00
48668;BME280;34453;52.198;5.004;2023-03-15T08:05:02;101931.66;;;3.26;100.00
48668;BME280;34453;52.198;5.004;2023-03-15T08:07:29;101939.38;;;3.28;100.00
48668;BME280;34453;52.198;5.004;2023-03-15T08:09:54;101940.97;;;3.30;100.00
48668;BME280;34453;52.198;5.004;2023-03-15T08:12:22;101939.38;;;3.28;100.00
48668;BME280;34453;52.198;5.004;2023-03-15T08:14:47;101939.13;;;3.34;100.00
48668;BME280;34453;52.198;5.004;2023-03-15T08:17:14;101931.00;;;3.42;100.00
48668;BME280;34453;52.198;5.004;2023-03-15T08:19:40;101932.41;;;3.49;100.00
48668;BME280;34453;52.198;5.004;2023-03-15T08:22:06;101940.88;;;3.52;100.00
48668;BME280;34453;52.198;5.004;2023-03-15T08:24:32;101940.53;;;3.60;100.00
48668;BME280;34453;52.198;5.004;2023-03-15T08:26:58;101947.38;;;3.61;100.00
48668;BME280;34453;52.198;5.004;2023-03-15T08:29:23;101948.66;;;3.71;100.00
48668;BME280;34453;52.198;5.004;2023-03-15T08:31:48;101957.00;;;3.78;100.00
48668;BME280;34453;52.198;5.004;2023-03-15T08:34:14;101965.44;;;3.82;100.00
48668;BME280;34453;52.198;5.004;2023-03-15T08:36:40;101970.19;;;3.91;100.00
48668;BME280;34453;52.198;5.004;2023-03-15T08:39:06;101977.84;;;3.94;100.00
48668;BME280;34453;52.198;5.004;2023-03-15T08:41:33;101964.53;;;4.02;100.00
48668;BME280;34453;52.198;5.004;2023-03-15T08:43:59;101963.53;;;4.04;100.00
48668;BME280;34453;52.198;5.004;2023-03-15T08:46:26;101968.22;;;4.15;100.00
48668;BME280;34453;52.198;5.004;2023-03-15T08:48:51;101970.38;;;4.24;100.00
48668;BME280;34453;52.198;5.004;2023-03-15T08:51:17;101966.78;;;4.27;100.00
48668;BME280;34453;52.198;5.004;2023-03-15T08:53:44;101971.78;;;4.31;100.00
48668;BME280;34453;52.198;5.004;2023-03-15T08:56:10;101973.16;;;4.39;100.00
48668;BME280;34453;52.198;5.004;2023-03-15T08:58:36;101971.41;;;4.39;100.00
48668;BME280;34453;52.198;5.004;2023-03-15T09:01:02;101969.59;;;4.41;100.00
48668;BME280;34453;52.198;5.004;2023-03-15T09:03:29;101963.06;;;4.51;100.00
48668;BME280;34453;52.198;5.004;2023-03-15T09:05:57;101958.47;;;4.56;100.00
48668;BME280;34453;52.198;5.004;2023-03-15T09:08:23;101965.31;;;4.57;100.00
48668;BME280;34453;52.198;5.004;2023-03-15T09:10:53;101962.81;;;4.73;100.00
48668;BME280;34453;52.198;5.004;2023-03-15T09:13:19;101967.81;;;4.78;100.00
48668;BME280;34453;52.198;5.004;2023-03-15T09:15:44;101963.28;;;4.99;100.00
48668;BME280;34453;52.198;5.004;2023-03-15T09:18:09;101957.56;;;5.10;100.00
48668;BME280;34453;52.198;5.004;2023-03-15T09:20:35;101959.69;;;5.19;100.00
48668;BME280;34453;52.198;5.004;2023-03-15T09:23:00;101961.63;;;5.31;100.00
48668;BME280;34453;52.198;5.004;2023-03-15T09:25:26;101951.44;;;5.44;100.00
48668;BME280;34453;52.198;5.004;2023-03-15T09:27:52;101958.00;;;5.51;100.00
48668;BME280;34453;52.198;5.004;2023-03-15T09:30:17;101958.44;;;5.59;100.00
48668;BME280;34453;52.198;5.004;2023-03-15T09:32:43;101950.81;;;5.56;100.00
48668;BME280;34453;52.198;5.004;2023-03-15T09:35:14;101961.63;;;5.65;100.00
48668;BME280;34453;52.198;5.004;2023-03-15T09:37:39;101960.47;;;5.70;100.00
48668;BME280;34453;52.198;5.004;2023-03-15T09:40:12;101966.25;;;5.75;100.00
48668;BME280;34453;52.198;5.004;2023-03-15T09:43:09;101964.50;;;5.76;100.00
48668;BME280;34453;52.198;5.004;2023-03-15T09:48:36;101958.88;;;5.84;100.00
48668;BME280;34453;52.198;5.004;2023-03-15T09:51:10;101954.88;;;5.94;100.00
48668;BME280;34453;52.198;5.004;2023-03-15T09:56:19;101964.78;;;6.03;100.00
48668;BME280;34453;52.198;5.004;2023-03-15T09:58:48;101968.59;;;5.80;100.00
48668;BME280;34453;52.198;5.004;2023-03-15T10:01:16;101969.47;;;5.96;100.00
48668;BME280;34453;52.198;5.004;2023-03-15T10:03:50;101965.75;;;6.48;100.00
48668;BME280;34453;52.198;5.004;2023-03-15T10:08:42;101965.69;;;6.94;100.00
48668;BME280;34453;52.198;5.004;2023-03-15T10:17:13;101960.03;;;7.02;100.00
48668;BME280;34453;52.198;5.004;2023-03-15T10:19:55;101966.38;;;7.12;100.00
48668;BME280;34453;52.198;5.004;2023-03-15T10:22:30;101962.09;;;7.11;100.00
48668;BME280;34453;52.198;5.004;2023-03-15T10:25:17;101959.88;;;7.05;100.00
48668;BME280;34453;52.198;5.004;2023-03-15T10:27:48;101957.53;;;7.00;100.00
48668;BME280;34453;52.198;5.004;2023-03-15T10:30:23;101965.06;;;7.19;100.00
48668;BME280;34453;52.198;5.004;2023-03-15T10:33:03;101976.59;;;7.15;100.00
48668;BME280;34453;52.198;5.004;2023-03-15T10:35:30;101974.53;;;7.06;100.00
48668;BME280;34453;52.198;5.004;2023-03-15T10:37:56;101974.25;;;7.11;100.00
48668;BME280;34453;52.198;5.004;2023-03-15T10:40:58;101981.78;;;7.15;100.00
48668;BME280;34453;52.198;5.004;2023-03-15T10:43:28;101981.44;;;7.07;100.00
48668;BME280;34453;52.198;5.004;2023-03-15T10:46:09;101989.47;;;6.88;100.00
48668;BME280;34453;52.198;5.004;2023-03-15T10:48:37;101996.78;;;7.26;100.00
48668;BME280;34453;52.198;5.004;2023-03-15T10:53:30;102012.13;;;7.16;100.00
48668;BME280;34453;52.198;5.004;2023-03-15T10:55:59;102012.88;;;7.33;100.00
48668;BME280;34453;52.198;5.004;2023-03-15T10:58:28;102018.28;;;7.44;100.00
48668;BME280;34453;52.198;5.004;2023-03-15T11:01:00;102007.75;;;7.31;100.00
48668;BME280;34453;52.198;5.004;2023-03-15T11:03:27;102014.56;;;7.34;100.00
48668;BME280;34453;52.198;5.004;2023-03-15T11:05:55;102029.47;;;7.16;100.00
48668;BME280;34453;52.198;5.004;2023-03-15T11:08:23;102027.03;;;7.43;100.00
48668;BME280;34453;52.198;5.004;2023-03-15T11:10:58;102026.75;;;7.76;100.00
48668;BME280;34453;52.198;5.004;2023-03-15T11:13:26;102032.91;;;7.61;100.00
48668;BME280;34453;52.198;5.004;2023-03-15T11:16:00;102040.72;;;7.61;100.00
48668;BME280;34453;52.198;5.004;2023-03-15T11:18:36;102036.41;;;7.45;100.00
48668;BME280;34453;52.198;5.004;2023-03-15T11:21:08;102031.84;;;7.49;100.00
48668;BME280;34453;52.198;5.004;2023-03-15T11:23:37;102025.25;;;7.86;100.00
48668;BME280;34453;52.198;5.004;2023-03-15T11:26:04;102018.47;;;7.98;100.00
48668;BME280;34453;52.198;5.004;2023-03-15T11:28:31;102028.72;;;7.58;100.00
48668;BME280;34453;52.198;5.004;2023-03-15T11:31:00;102028.50;;;7.76;100.00
48668;BME280;34453;52.198;5.004;2023-03-15T11:33:44;102025.91;;;7.76;100.00
48668;BME280;34453;52.198;5.004;2023-03-15T11:36:15;102019.50;;;7.81;100.00
48668;BME280;34453;52.198;5.004;2023-03-15T11:38:43;102034.28;;;7.95;100.00
48668;BME280;34453;52.198;5.004;2023-03-15T11:44:00;102034.94;;;7.99;100.00
48668;BME280;34453;52.198;5.004;2023-03-15T11:46:35;102023.38;;;8.03;100.00
48668;BME280;34453;52.198;5.004;2023-03-15T11:51:36;102019.91;;;8.02;100.00
48668;BME280;34453;52.198;5.004;2023-03-15T11:59:13;102018.44;;;8.40;100.00
48668;BME280;34453;52.198;5.004;2023-03-15T12:07:24;102024.28;;;8.16;100.00
48668;BME280;34453;52.198;5.004;2023-03-15T12:09:54;102030.41;;;8.29;100.00
48668;BME280;34453;52.198;5.004;2023-03-15T12:20:26;102035.28;;;8.63;100.00
48668;BME280;34453;52.198;5.004;2023-03-15T12:25:43;102030.28;;;8.45;100.00
48668;BME280;34453;52.198;5.004;2023-03-15T12:28:20;102026.75;;;8.46;100.00
48668;BME280;34453;52.198;5.004;2023-03-15T12:30:53;102029.75;;;8.67;100.00
48668;BME280;34453;52.198;5.004;2023-03-15T12:33:21;102032.75;;;8.61;100.00
48668;BME280;34453;52.198;5.004;2023-03-15T12:35:48;102026.44;;;8.51;100.00
48668;BME280;34453;52.198;5.004;2023-03-15T12:38:15;102024.47;;;8.82;100.00
48668;BME280;34453;52.198;5.004;2023-03-15T12:40:53;102027.75;;;8.71;100.00
48668;BME280;34453;52.198;5.004;2023-03-15T12:43:40;102036.38;;;8.86;100.00
48668;BME280;34453;52.198;5.004;2023-03-15T12:49:28;102016.91;;;9.43;100.00
48668;BME280;34453;52.198;5.004;2023-03-15T12:54:25;102037.25;;;9.25;100.00
48668;BME280;34453;52.198;5.004;2023-03-15T12:56:58;102037.84;;;8.90;100.00
48668;BME280;34453;52.198;5.004;2023-03-15T12:59:32;102026.66;;;8.34;100.00
48668;BME280;34453;52.198;5.004;2023-03-15T13:02:00;102033.19;;;8.68;100.00
48668;BME280;34453;52.198;5.004;2023-03-15T13:04:28;102008.91;;;8.93;100.00
48668;BME280;34453;52.198;5.004;2023-03-15T13:15:02;102004.41;;;8.42;100.00
48668;BME280;34453;52.198;5.004;2023-03-15T13:17:34;102014.84;;;8.82;100.00
48668;BME280;34453;52.198;5.004;2023-03-15T13:20:39;102006.56;;;8.63;100.00
48668;BME280;34453;52.198;5.004;2023-03-15T13:25:58;102018.19;;;8.84;100.00
48668;BME280;34453;52.198;5.004;2023-03-15T13:29:10;102010.50;;;9.08;100.00
48668;BME280;34453;52.198;5.004;2023-03-15T13:31:33;102021.94;;;8.80;100.00
48668;BME280;34453;52.198;5.004;2023-03-15T13:34:19;102023.09;;;8.76;100.00
48668;BME280;34453;52.198;5.004;2023-03-15T13:36:55;102023.63;;;8.81;100.00
48668;BME280;34453;52.198;5.004;2023-03-15T13:39:26;102020.19;;;8.81;100.00
48668;BME280;34453;52.198;5.004;2023-03-15T13:45:12;102014.50;;;9.27;100.00
48668;BME280;34453;52.198;5.004;2023-03-15T13:47:43;102010.31;;;9.11;100.00
48668;BME280;34453;52.198;5.004;2023-03-15T13:50:15;102008.41;;;9.13;100.00
48668;BME280;34453;52.198;5.004;2023-03-15T13:52:41;102024.31;;;9.10;100.00
48668;BME280;34453;52.198;5.004;2023-03-15T13:55:11;102022.34;;;9.40;100.00
48668;BME280;34453;52.198;5.004;2023-03-15T13:57:37;102030.34;;;8.98;100.00
48668;BME280;34453;52.198;5.004;2023-03-15T14:00:07;102026.78;;;8.99;100.00
48668;BME280;34453;52.198;5.004;2023-03-15T14:05:10;102020.09;;;8.95;100.00
48668;BME280;34453;52.198;5.004;2023-03-15T14:07:44;102036.03;;;8.78;100.00